Time,TemperatureF,DewpointF,PressureIn,WindDirection,WindDirectionDegrees,WindSpeedMPH,WindSpeedGustMPH,Humidity,HourlyPrecipIn,Conditions,Clouds,dailyrainin,SoftwareType,DateUTC
2013-06-01 00:02:00,77.5,69.3,29.84,SSW,202,5.6,5.6,76,0.00,,,0.00,WUHU21623XXSP,2013-06-01 05:02:00,
2013-06-01 00:07:00,77.5,69.3,29.85,SSW,202,0.0,5.6,76,0.00,,,0.00,WUHU21623XXSP,2013-06-01 05:07:00,
2013-06-01 00:12:00,77.5,69.3,29.85,SSW,202,0.0,0.0,76,0.00,,,0.00,WUHU21623XXSP,2013-06-01 05:12:00,
2013-06-01 00:17:00,77.5,69.3,29.84,South,180,0.0,0.0,76,0.00,,,0.00,WUHU21623XXSP,2013-06-01 05:17:00,
2013-06-01 00:22:00,77.5,69.7,29.85,SW,225,0.0,2.0,77,0.00,,,0.00,WUHU21623XXSP,2013-06-01 05:22:00,
2013-06-01 00:27:00,77.5,69.7,29.84,SSW,202,0.0,2.0,77,0.00,,,0.00,WUHU21623XXSP,2013-06-01 05:27:00,
2013-06-01 00:32:00,77.5,69.7,29.84,SSW,202,0.0,0.7,77,0.00,,,0.00,WUHU21623XXSP,2013-06-01 05:32:00,
2013-06-01 00:37:00,77.4,69.5,29.84,SSW,202,0.0,0.7,77,0.00,,,0.00,WUHU21623XXSP,2013-06-01 05:37:00,
2013-06-01 00:42:00,77.4,69.5,29.84,South,180,0.0,0.0,77,0.00,,,0.00,WUHU21623XXSP,2013-06-01 05:42:00,
2013-06-01 00:47:00,77.4,69.5,29.84,SSW,202,0.0,0.0,77,0.00,,,0.00,WUHU21623XXSP,2013-06-01 05:47:00,
2013-06-01 00:52:00,77.2,69.4,29.84,SSW,202,0.0,0.0,77,0.00,,,0.00,WUHU21623XXSP,2013-06-01 05:52:00,
2013-06-01 00:57:00,77.0,69.2,29.84,SSW,202,0.0,0.0,77,0.00,,,0.00,WUHU21623XXSP,2013-06-01 05:57:00,
2013-06-01 01:02:00,76.8,69.4,29.85,SSW,202,0.0,0.0,78,0.00,,,0.00,WUHU21623XXSP,2013-06-01 06:02:00,
2013-06-01 01:07:00,76.6,69.3,29.83,South,180,0.0,0.0,79,0.00,,,0.00,WUHU21623XXSP,2013-06-01 06:07:00,
2013-06-01 01:12:00,76.1,69.1,29.82,South,180,2.2,2.2,79,0.00,,,0.00,WUHU21623XXSP,2013-06-01 06:12:00,
2013-06-01 01:17:00,75.7,69.2,29.82,SSE,157,0.0,7.6,80,0.00,,,0.00,WUHU21623XXSP,2013-06-01 06:17:00,
2013-06-01 01:22:00,75.4,69.2,29.82,SSW,202,0.0,7.6,81,0.00,,,0.00,WUHU21623XXSP,2013-06-01 06:22:00,
2013-06-01 01:27:00,75.0,69.2,29.82,SSW,202,0.7,0.7,82,0.00,,,0.00,WUHU21623XXSP,2013-06-01 06:27:00,
2013-06-01 01:32:00,75.0,69.5,29.82,SW,225,0.0,0.7,83,0.00,,,0.00,WUHU21623XXSP,2013-06-01 06:32:00,
2013-06-01 01:37:00,75.0,69.6,29.83,SW,225,2.0,2.0,83,0.00,,,0.00,WUHU21623XXSP,2013-06-01 06:37:00,
2013-06-01 01:42:00,74.8,69.0,29.86,SW,225,0.2,2.0,82,0.00,,,0.00,WUHU21623XXSP,2013-06-01 06:42:00,
2013-06-01 01:47:00,74.1,66.9,29.87,WSW,247,2.5,6.3,78,0.00,,,0.00,WUHU21623XXSP,2013-06-01 06:47:00,
2013-06-01 01:52:00,72.5,64.9,29.84,SW,225,1.6,6.3,77,0.00,,,0.00,WUHU21623XXSP,2013-06-01 06:52:00,
2013-06-01 01:57:00,71.4,63.8,29.84,SSW,202,0.0,2.5,77,0.00,,,0.00,WUHU21623XXSP,2013-06-01 06:57:00,
2013-06-01 02:02:00,70.7,63.1,29.84,South,180,0.2,0.7,77,0.00,,,0.00,WUHU21623XXSP,2013-06-01 07:02:00,
2013-06-01 02:08:00,70.0,62.9,29.84,South,180,0.0,2.7,78,0.00,,,0.00,WUHU21623XXSP,2013-06-01 07:08:00,
2013-06-01 02:12:00,69.6,62.4,29.82,SSW,202,0.0,2.7,78,0.00,,,0.00,WUHU21623XXSP,2013-06-01 07:12:00,
2013-06-01 02:18:00,69.1,61.9,29.80,SSE,157,0.0,0.0,78,0.00,,,0.00,WUHU21623XXSP,2013-06-01 07:18:00,
2013-06-01 02:23:00,68.9,61.4,29.81,SSW,202,0.0,0.0,77,0.00,,,0.00,WUHU21623XXSP,2013-06-01 07:23:00,
2013-06-01 02:28:00,68.9,61.4,29.80,South,180,0.0,0.0,77,0.00,,,0.00,WUHU21623XXSP,2013-06-01 07:28:00,
2013-06-01 02:33:00,68.7,61.2,29.79,South,180,0.0,0.0,77,0.00,,,0.00,WUHU21623XXSP,2013-06-01 07:33:00,
2013-06-01 02:38:00,68.7,61.2,29.81,SW,225,0.0,0.0,77,0.00,,,0.00,WUHU21623XXSP,2013-06-01 07:38:00,
2013-06-01 02:43:00,68.5,61.1,29.82,SSW,202,0.0,0.0,77,0.00,,,0.00,WUHU21623XXSP,2013-06-01 07:43:00,
2013-06-01 02:48:00,68.2,61.1,29.81,SSW,202,0.0,0.0,78,0.00,,,0.00,WUHU21623XXSP,2013-06-01 07:48:00,
2013-06-01 02:53:00,67.6,61.0,29.82,SSW,202,0.0,0.0,79,0.00,,,0.00,WUHU21623XXSP,2013-06-01 07:53:00,
2013-06-01 02:58:00,67.3,61.0,29.84,SSW,202,0.0,0.0,80,0.00,,,0.00,WUHU21623XXSP,2013-06-01 07:58:00,
2013-06-01 03:03:00,66.9,60.6,29.86,SW,225,0.0,0.0,80,0.00,,,0.00,WUHU21623XXSP,2013-06-01 08:03:00,
2013-06-01 03:08:00,66.7,61.1,29.86,SSE,157,0.0,1.1,82,0.00,,,0.00,WUHU21623XXSP,2013-06-01 08:08:00,
2013-06-01 03:13:00,66.7,61.4,29.87,South,180,0.0,1.1,83,0.00,,,0.00,WUHU21623XXSP,2013-06-01 08:13:00,
2013-06-01 03:18:00,66.7,61.4,29.88,SE,135,0.0,0.0,83,0.00,,,0.00,WUHU21623XXSP,2013-06-01 08:18:00,
2013-06-01 03:23:00,66.7,61.7,29.88,South,180,0.0,0.0,84,0.00,,,0.00,WUHU21623XXSP,2013-06-01 08:23:00,
2013-06-01 03:28:00,66.7,61.4,29.88,SW,225,0.0,0.0,83,0.00,,,0.00,WUHU21623XXSP,2013-06-01 08:28:00,
2013-06-01 03:33:00,66.9,61.3,29.87,SSW,202,0.0,0.0,82,0.00,,,0.00,WUHU21623XXSP,2013-06-01 08:33:00,
2013-06-01 03:38:00,66.7,61.1,29.86,SSW,202,0.0,0.0,82,0.00,,,0.00,WUHU21623XXSP,2013-06-01 08:38:00,
2013-06-01 03:43:00,66.7,61.1,29.86,SSW,202,0.0,0.0,82,0.00,,,0.00,WUHU21623XXSP,2013-06-01 08:43:00,
2013-06-01 03:48:00,66.4,60.7,29.86,SSW,202,0.0,0.0,82,0.00,,,0.00,WUHU21623XXSP,2013-06-01 08:48:00,
2013-06-01 03:53:00,66.0,60.4,29.84,SSW,202,0.0,0.0,82,0.00,,,0.00,WUHU21623XXSP,2013-06-01 08:53:00,
2013-06-01 03:58:00,65.8,60.5,29.82,SSW,202,0.0,0.0,83,0.00,,,0.00,WUHU21623XXSP,2013-06-01 08:58:00,
2013-06-01 04:03:00,65.5,60.2,29.82,SSW,202,0.0,0.0,83,0.00,,,0.00,WUHU21623XXSP,2013-06-01 09:03:00,
2013-06-01 04:08:00,65.1,59.8,29.81,SSW,202,0.0,0.0,83,0.00,,,0.00,WUHU21623XXSP,2013-06-01 09:08:00,
2013-06-01 04:13:00,65.1,60.2,29.81,SSW,202,0.0,0.0,84,0.00,,,0.00,WUHU21623XXSP,2013-06-01 09:13:00,
2013-06-01 04:18:00,64.9,60.0,29.81,SSW,202,0.0,0.0,84,0.00,,,0.00,WUHU21623XXSP,2013-06-01 09:18:00,
2013-06-01 04:23:00,64.9,60.0,29.81,SSW,202,0.0,0.0,84,0.00,,,0.00,WUHU21623XXSP,2013-06-01 09:23:00,
2013-06-01 04:28:00,64.8,59.8,29.80,SSW,202,0.0,0.0,85,0.00,,,0.00,WUHU21623XXSP,2013-06-01 09:28:00,
2013-06-01 04:33:00,64.6,60.0,29.80,SSW,202,0.0,0.0,85,0.00,,,0.00,WUHU21623XXSP,2013-06-01 09:33:00,
2013-06-01 04:38:00,64.6,60.0,29.82,SSW,202,0.0,0.0,85,0.00,,,0.00,WUHU21623XXSP,2013-06-01 09:38:00,
2013-06-01 04:43:00,64.6,60.0,29.80,South,180,0.0,0.0,85,0.00,,,0.00,WUHU21623XXSP,2013-06-01 09:43:00,
2013-06-01 04:48:00,64.2,59.6,29.78,SSW,202,0.0,0.0,85,0.00,,,0.00,WUHU21623XXSP,2013-06-01 09:48:00,
2013-06-01 04:53:00,64.2,59.6,29.79,SSW,202,0.0,0.0,85,0.00,,,0.00,WUHU21623XXSP,2013-06-01 09:53:00,
2013-06-01 04:58:00,64.2,60.0,29.79,SSW,202,0.0,0.0,86,0.00,,,0.00,WUHU21623XXSP,2013-06-01 09:58:00,
2013-06-01 05:03:00,64.2,60.0,29.79,SSW,202,0.0,0.0,86,0.00,,,0.00,WUHU21623XXSP,2013-06-01 10:03:00,
2013-06-01 05:08:00,64.0,59.8,29.79,South,180,0.0,0.0,86,0.00,,,0.00,WUHU21623XXSP,2013-06-01 10:08:00,
2013-06-01 05:13:00,64.0,59.8,29.81,SE,135,0.0,0.0,86,0.00,,,0.00,WUHU21623XXSP,2013-06-01 10:13:00,
2013-06-01 05:18:00,64.0,59.8,29.82,SE,135,0.0,0.0,86,0.00,,,0.00,WUHU21623XXSP,2013-06-01 10:18:00,
2013-06-01 05:23:00,64.0,59.8,29.84,SE,135,0.0,0.0,86,0.00,,,0.00,WUHU21623XXSP,2013-06-01 10:23:00,
2013-06-01 05:28:00,64.0,59.8,29.88,NNW,337,0.4,0.4,86,0.00,,,0.00,WUHU21623XXSP,2013-06-01 10:28:00,
2013-06-01 05:33:00,64.0,60.5,29.89,North,0,8.1,8.1,88,0.00,,,0.00,WUHU21623XXSP,2013-06-01 10:33:00,
2013-06-01 05:38:00,64.2,60.7,29.89,North,0,0.0,8.1,88,0.00,,,0.00,WUHU21623XXSP,2013-06-01 10:38:00,
2013-06-01 05:43:00,64.2,60.7,29.89,North,0,0.0,0.0,88,0.00,,,0.00,WUHU21623XXSP,2013-06-01 10:43:00,
2013-06-01 05:48:00,64.2,61.0,29.91,NNW,337,0.0,0.0,89,0.00,,,0.00,WUHU21623XXSP,2013-06-01 10:48:00,
2013-06-01 05:53:00,64.0,60.8,29.91,NNW,337,0.0,0.0,89,0.00,,,0.00,WUHU21623XXSP,2013-06-01 10:53:00,
2013-06-01 05:58:00,64.0,60.8,29.90,North,0,0.0,0.0,89,0.00,,,0.00,WUHU21623XXSP,2013-06-01 10:58:00,
2013-06-01 06:03:00,64.2,61.0,29.89,North,0,0.0,0.0,89,0.00,,,0.00,WUHU21623XXSP,2013-06-01 11:03:00,
2013-06-01 06:08:00,64.0,61.0,29.89,North,0,0.0,0.0,89,0.00,,,0.00,WUHU21623XXSP,2013-06-01 11:08:00,
2013-06-01 06:13:00,64.0,60.8,29.90,North,0,0.0,0.0,89,0.00,,,0.00,WUHU21623XXSP,2013-06-01 11:13:00,
2013-06-01 06:18:00,64.0,60.8,29.87,North,0,0.0,0.0,89,0.00,,,0.00,WUHU21623XXSP,2013-06-01 11:18:00,
2013-06-01 06:23:00,64.0,60.8,29.87,North,0,0.0,0.0,89,0.00,,,0.00,WUHU21623XXSP,2013-06-01 11:23:00,
2013-06-01 06:28:00,64.0,60.8,29.87,North,0,0.0,0.0,89,0.00,,,0.00,WUHU21623XXSP,2013-06-01 11:28:00,
2013-06-01 06:33:00,64.0,60.8,29.89,NW,315,0.0,0.0,89,0.00,,,0.00,WUHU21623XXSP,2013-06-01 11:33:00,
2013-06-01 06:38:00,64.0,60.8,29.89,WNW,292,0.0,0.0,89,0.00,,,0.00,WUHU21623XXSP,2013-06-01 11:38:00,
2013-06-01 06:43:00,64.0,60.8,29.87,East,90,0.0,0.0,89,0.00,,,0.00,WUHU21623XXSP,2013-06-01 11:43:00,
2013-06-01 06:48:00,64.0,60.8,29.89,East,90,0.0,0.0,89,0.00,,,0.00,WUHU21623XXSP,2013-06-01 11:48:00,
2013-06-01 06:53:00,64.0,61.2,29.90,North,0,0.0,0.0,90,0.00,,,0.00,WUHU21623XXSP,2013-06-01 11:53:00,
2013-06-01 06:58:00,64.0,61.2,29.91,North,0,0.0,0.0,90,0.00,,,0.00,WUHU21623XXSP,2013-06-01 11:58:00,
2013-06-01 07:03:00,64.0,61.2,29.92,North,0,0.0,0.0,90,0.00,,,0.00,WUHU21623XXSP,2013-06-01 12:03:00,
2013-06-01 07:08:00,64.0,61.2,29.92,North,0,0.0,0.0,90,0.00,,,0.00,WUHU21623XXSP,2013-06-01 12:08:00,
2013-06-01 07:13:00,64.0,61.2,29.90,North,0,0.0,0.0,90,0.00,,,0.00,WUHU21623XXSP,2013-06-01 12:13:00,
2013-06-01 07:18:00,64.0,61.2,29.87,SE,135,0.0,0.0,90,0.00,,,0.00,WUHU21623XXSP,2013-06-01 12:18:00,
2013-06-01 07:23:00,64.0,61.4,29.86,SE,135,0.0,0.0,91,0.00,,,0.00,WUHU21623XXSP,2013-06-01 12:23:00,
2013-06-01 07:28:00,64.0,61.4,29.85,SE,135,0.0,0.0,91,0.00,,,0.00,WUHU21623XXSP,2013-06-01 12:28:00,
2013-06-01 07:33:00,64.0,61.4,29.84,SE,135,0.0,0.0,91,0.00,,,0.00,WUHU21623XXSP,2013-06-01 12:33:00,
2013-06-01 07:38:00,64.0,61.4,29.84,SE,135,0.0,0.0,91,0.00,,,0.00,WUHU21623XXSP,2013-06-01 12:38:00,
2013-06-01 15:20:00,74.3,66.8,29.95,SSW,202,0.0,0.0,77,0.00,,,0.00,WUHU21623XXSP,2013-06-01 20:20:00,
2013-06-01 15:25:00,74.8,66.9,29.96,SSW,202,0.0,0.0,76,0.00,,,0.00,WUHU21623XXSP,2013-06-01 20:25:00,
2013-06-01 15:30:00,75.0,66.7,29.96,SSW,202,11.4,11.4,75,0.00,,,0.00,WUHU21623XXSP,2013-06-01 20:30:00,
2013-06-01 15:35:00,75.2,66.5,29.96,SSW,202,0.0,11.4,74,0.00,,,0.00,WUHU21623XXSP,2013-06-01 20:35:00,
2013-06-01 15:40:00,75.4,66.3,29.96,SW,225,0.0,0.0,73,0.00,,,0.00,WUHU21623XXSP,2013-06-01 20:40:00,
2013-06-01 15:45:00,75.4,65.7,29.96,SW,225,0.0,0.0,72,0.00,,,0.00,WUHU21623XXSP,2013-06-01 20:45:00,
2013-06-01 15:50:00,75.7,66.1,29.95,SSW,202,0.0,0.0,72,0.00,,,0.00,WUHU21623XXSP,2013-06-01 20:50:00,
2013-06-01 15:55:00,75.9,65.7,29.95,SSW,202,0.0,0.0,71,0.00,,,0.00,WUHU21623XXSP,2013-06-01 20:55:00,
2013-06-01 16:00:00,75.9,65.5,29.95,SSW,202,0.0,0.0,70,0.00,,,0.00,WUHU21623XXSP,2013-06-01 21:00:00,
2013-06-01 16:05:00,76.1,65.2,29.96,SW,225,0.0,0.0,69,0.00,,,0.00,WUHU21623XXSP,2013-06-01 21:05:00,
2013-06-01 16:10:00,76.1,65.2,29.95,SW,225,0.0,0.0,69,0.00,,,0.00,WUHU21623XXSP,2013-06-01 21:10:00,
2013-06-01 16:15:00,75.9,65.0,29.95,SSW,202,12.8,12.8,69,0.00,,,0.00,WUHU21623XXSP,2013-06-01 21:15:00,
2013-06-01 16:20:00,75.9,65.5,29.95,SSW,202,0.0,12.8,70,0.00,,,0.00,WUHU21623XXSP,2013-06-01 21:20:00,
2013-06-01 16:25:00,75.9,65.5,29.95,SW,225,0.0,0.0,70,0.00,,,0.00,WUHU21623XXSP,2013-06-01 21:25:00,
2013-06-01 16:30:00,75.9,65.0,29.96,SW,225,0.0,0.0,69,0.00,,,0.00,WUHU21623XXSP,2013-06-01 21:30:00,
2013-06-01 16:35:00,75.9,64.6,29.96,SW,225,0.0,0.0,68,0.00,,,0.00,WUHU21623XXSP,2013-06-01 21:35:00,
2013-06-01 16:57:00,76.5,64.9,29.95,SW,225,12.8,12.8,67,0.00,,,0.00,WUHU21623XXSP,2013-06-01 21:57:00,
2013-06-01 17:02:00,76.3,64.8,29.95,SW,225,0.0,12.8,67,0.00,,,0.00,WUHU21623XXSP,2013-06-01 22:02:00,
2013-06-01 17:07:00,76.3,64.3,29.95,SW,225,0.0,0.0,66,0.00,,,0.00,WUHU21623XXSP,2013-06-01 22:07:00,
2013-06-01 17:12:00,75.9,63.9,29.95,SW,225,0.0,0.0,66,0.00,,,0.00,WUHU21623XXSP,2013-06-01 22:12:00,
2013-06-01 17:17:00,75.7,64.0,29.95,SSW,202,0.0,0.0,67,0.00,,,0.00,WUHU21623XXSP,2013-06-01 22:17:00,
2013-06-01 17:22:00,75.6,64.2,29.95,SSW,202,0.0,0.0,68,0.00,,,0.00,WUHU21623XXSP,2013-06-01 22:22:00,
2013-06-01 17:27:00,75.4,64.1,29.95,SSW,202,0.0,0.0,68,0.00,,,0.00,WUHU21623XXSP,2013-06-01 22:27:00,
2013-06-01 17:32:00,75.4,64.5,29.95,SSW,202,0.0,0.0,69,0.00,,,0.00,WUHU21623XXSP,2013-06-01 22:32:00,
2013-06-01 17:37:00,75.0,63.7,29.95,SW,225,0.0,11.6,68,0.00,,,0.00,WUHU21623XXSP,2013-06-01 22:37:00,
2013-06-01 17:42:00,75.0,63.3,29.94,SW,225,0.0,11.6,67,0.00,,,0.00,WUHU21623XXSP,2013-06-01 22:42:00,
2013-06-01 17:47:00,75.0,63.7,29.95,SW,225,0.0,0.0,68,0.00,,,0.00,WUHU21623XXSP,2013-06-01 22:47:00,
2013-06-01 17:52:00,75.0,63.7,29.95,SSW,202,0.0,0.0,68,0.00,,,0.00,WUHU21623XXSP,2013-06-01 22:52:00,
2013-06-01 17:57:00,75.0,63.7,29.94,SSW,202,0.0,0.0,68,0.00,,,0.00,WUHU21623XXSP,2013-06-01 22:57:00,
2013-06-01 18:02:00,75.0,63.7,29.94,SSW,202,0.0,0.0,68,0.00,,,0.00,WUHU21623XXSP,2013-06-01 23:02:00,
2013-06-01 18:07:00,75.0,63.7,29.95,SSW,202,0.0,10.5,68,0.00,,,0.00,WUHU21623XXSP,2013-06-01 23:07:00,
2013-06-01 18:12:00,74.8,63.6,29.95,SW,225,0.0,10.5,68,0.00,,,0.00,WUHU21623XXSP,2013-06-01 23:12:00,
2013-06-01 18:17:00,74.5,63.2,29.95,SW,225,0.0,13.9,68,0.00,,,0.00,WUHU21623XXSP,2013-06-01 23:17:00,
2013-06-01 18:22:00,74.5,63.7,29.95,SSW,202,0.0,13.9,69,0.00,,,0.00,WUHU21623XXSP,2013-06-01 23:22:00,
2013-06-01 18:27:00,74.5,63.7,29.95,WSW,247,0.0,0.0,69,0.00,,,0.00,WUHU21623XXSP,2013-06-01 23:27:00,
2013-06-01 18:32:00,74.3,63.5,29.96,WSW,247,0.0,0.0,69,0.00,,,0.00,WUHU21623XXSP,2013-06-01 23:32:00,
2013-06-01 18:37:00,73.9,63.2,29.96,WSW,247,0.0,0.0,69,0.00,,,0.00,WUHU21623XXSP,2013-06-01 23:37:00,
2013-06-01 18:42:00,73.8,63.5,29.96,WSW,247,0.0,0.0,70,0.00,,,0.00,WUHU21623XXSP,2013-06-01 23:42:00,
2013-06-01 18:47:00,73.4,62.7,29.95,WSW,247,0.0,0.0,69,0.00,,,0.00,WUHU21623XXSP,2013-06-01 23:47:00,
2013-06-01 18:52:00,73.0,62.3,29.96,WSW,247,0.0,0.0,69,0.00,,,0.00,WUHU21623XXSP,2013-06-01 23:52:00,
2013-06-01 18:57:00,72.7,62.0,29.96,WSW,247,0.0,0.0,69,0.00,,,0.00,WUHU21623XXSP,2013-06-01 23:57:00,
2013-06-01 19:02:00,72.5,61.8,29.96,WSW,247,0.0,0.0,69,0.00,,,0.00,WUHU21623XXSP,2013-06-02 00:02:00,
2013-06-01 19:07:00,72.1,61.4,29.96,WSW,247,0.0,12.5,69,0.00,,,0.00,WUHU21623XXSP,2013-06-02 00:07:00,
2013-06-01 19:12:00,72.1,61.4,29.96,WSW,247,0.0,12.5,69,0.00,,,0.00,WUHU21623XXSP,2013-06-02 00:12:00,
2013-06-01 19:17:00,72.0,60.8,29.97,WSW,247,0.0,0.0,68,0.00,,,0.00,WUHU21623XXSP,2013-06-02 00:17:00,
2013-06-01 19:22:00,71.8,61.1,29.97,WSW,247,0.0,0.0,69,0.00,,,0.00,WUHU21623XXSP,2013-06-02 00:22:00,
2013-06-01 19:27:00,71.6,60.5,29.97,WSW,247,0.0,0.0,68,0.00,,,0.00,WUHU21623XXSP,2013-06-02 00:27:00,
2013-06-01 19:32:00,71.4,60.3,29.98,WSW,247,0.0,0.0,68,0.00,,,0.00,WUHU21623XXSP,2013-06-02 00:32:00,
2013-06-01 19:37:00,71.2,60.1,29.97,WSW,247,0.0,0.0,68,0.00,,,0.00,WUHU21623XXSP,2013-06-02 00:37:00,
2013-06-01 19:42:00,70.9,59.8,29.98,WSW,247,0.0,0.0,68,0.00,,,0.00,WUHU21623XXSP,2013-06-02 00:42:00,
2013-06-01 19:47:00,70.7,59.6,29.98,WSW,247,0.0,0.0,68,0.00,,,0.00,WUHU21623XXSP,2013-06-02 00:47:00,
2013-06-01 19:52:00,70.3,59.6,29.98,WSW,247,0.0,0.0,69,0.00,,,0.00,WUHU21623XXSP,2013-06-02 00:52:00,
2013-06-01 19:57:00,70.2,59.5,29.98,WSW,247,0.0,0.0,69,0.00,,,0.00,WUHU21623XXSP,2013-06-02 00:57:00,
2013-06-01 20:02:00,69.8,59.5,29.98,WSW,247,0.0,0.0,70,0.00,,,0.00,WUHU21623XXSP,2013-06-02 01:02:00,
2013-06-01 20:07:00,69.4,59.2,29.98,WSW,247,0.0,0.0,70,0.00,,,0.00,WUHU21623XXSP,2013-06-02 01:07:00,
2013-06-01 20:12:00,69.1,58.9,29.98,WSW,247,0.0,0.0,70,0.00,,,0.00,WUHU21623XXSP,2013-06-02 01:12:00,
2013-06-01 20:17:00,68.9,58.7,29.98,WSW,247,0.0,0.0,70,0.00,,,0.00,WUHU21623XXSP,2013-06-02 01:17:00,
2013-06-01 20:22:00,68.5,58.4,29.99,WSW,247,0.0,0.0,70,0.00,,,0.00,WUHU21623XXSP,2013-06-02 01:22:00,
2013-06-01 20:27:00,68.2,58.1,29.99,WSW,247,0.0,0.0,70,0.00,,,0.00,WUHU21623XXSP,2013-06-02 01:27:00,
2013-06-01 20:32:00,67.8,58.1,29.99,WSW,247,0.0,0.0,71,0.00,,,0.00,WUHU21623XXSP,2013-06-02 01:32:00,
2013-06-01 20:37:00,67.6,57.9,30.00,WSW,247,0.0,0.0,71,0.00,,,0.00,WUHU21623XXSP,2013-06-02 01:37:00,
2013-06-01 20:42:00,67.3,57.6,30.00,WSW,247,0.0,0.0,71,0.00,,,0.00,WUHU21623XXSP,2013-06-02 01:42:00,
2013-06-01 20:47:00,67.1,57.8,30.00,WSW,247,0.0,0.0,72,0.00,,,0.00,WUHU21623XXSP,2013-06-02 01:47:00,
2013-06-01 20:52:00,66.7,57.4,30.00,WSW,247,0.0,0.0,72,0.00,,,0.00,WUHU21623XXSP,2013-06-02 01:52:00,
2013-06-01 20:57:00,66.4,57.1,30.01,WSW,247,0.0,0.0,72,0.00,,,0.00,WUHU21623XXSP,2013-06-02 01:57:00,
2013-06-01 21:02:00,66.0,57.1,30.00,WSW,247,0.0,0.0,73,0.00,,,0.00,WUHU21623XXSP,2013-06-02 02:02:00,
2013-06-01 21:07:00,65.8,56.9,30.00,WSW,247,0.0,0.0,73,0.00,,,0.00,WUHU21623XXSP,2013-06-02 02:07:00,
2013-06-01 21:12:00,65.7,57.1,30.00,WSW,247,0.0,0.0,74,0.00,,,0.00,WUHU21623XXSP,2013-06-02 02:12:00,
2013-06-01 21:17:00,65.5,56.9,30.01,WSW,247,0.0,0.0,74,0.00,,,0.00,WUHU21623XXSP,2013-06-02 02:17:00,
2013-06-01 21:22:00,65.1,56.6,30.00,WSW,247,0.0,0.0,74,0.00,,,0.00,WUHU21623XXSP,2013-06-02 02:22:00,
2013-06-01 21:27:00,64.9,56.8,30.01,WSW,247,0.0,0.0,75,0.00,,,0.00,WUHU21623XXSP,2013-06-02 02:27:00,
2013-06-01 21:32:00,64.8,56.6,30.01,WSW,247,0.0,0.0,75,0.00,,,0.00,WUHU21623XXSP,2013-06-02 02:32:00,
2013-06-01 21:37:00,64.2,56.5,30.01,WSW,247,0.0,0.0,76,0.00,,,0.00,WUHU21623XXSP,2013-06-02 02:37:00,
2013-06-01 21:42:00,64.2,56.5,30.01,WSW,247,0.0,0.0,76,0.00,,,0.00,WUHU21623XXSP,2013-06-02 02:42:00,
2013-06-01 21:47:00,63.9,56.5,30.02,WSW,247,0.0,0.0,77,0.00,,,0.00,WUHU21623XXSP,2013-06-02 02:47:00,
2013-06-01 21:52:00,63.5,56.5,30.02,WSW,247,0.0,0.0,78,0.00,,,0.00,WUHU21623XXSP,2013-06-02 02:52:00,
2013-06-01 21:57:00,63.1,56.1,30.02,WSW,247,0.0,0.0,78,0.00,,,0.00,WUHU21623XXSP,2013-06-02 02:57:00,
2013-06-01 22:02:00,63.1,56.1,30.03,WSW,247,0.0,0.0,78,0.00,,,0.00,WUHU21623XXSP,2013-06-02 03:02:00,
2013-06-01 22:07:00,62.8,55.8,30.03,WSW,247,0.0,0.0,78,0.00,,,0.00,WUHU21623XXSP,2013-06-02 03:07:00,
2013-06-01 22:12:00,62.6,55.6,30.03,WSW,247,0.0,0.0,78,0.00,,,0.00,WUHU21623XXSP,2013-06-02 03:12:00,
2013-06-01 22:17:00,62.4,56.1,30.03,WSW,247,0.0,0.0,80,0.00,,,0.00,WUHU21623XXSP,2013-06-02 03:17:00,
2013-06-01 22:22:00,62.2,56.0,30.04,WSW,247,0.0,0.0,80,0.00,,,0.00,WUHU21623XXSP,2013-06-02 03:22:00,
2013-06-01 22:27:00,62.2,56.0,30.04,WSW,247,0.0,0.0,80,0.00,,,0.00,WUHU21623XXSP,2013-06-02 03:27:00,
2013-06-01 22:32:00,62.1,55.8,30.05,WSW,247,0.0,0.0,80,0.00,,,0.00,WUHU21623XXSP,2013-06-02 03:32:00,
2013-06-01 22:37:00,61.9,55.7,30.05,WSW,247,0.0,0.0,80,0.00,,,0.00,WUHU21623XXSP,2013-06-02 03:37:00,
2013-06-01 22:42:00,61.9,55.7,30.04,WSW,247,0.0,0.0,80,0.00,,,0.00,WUHU21623XXSP,2013-06-02 03:42:00,
2013-06-01 22:47:00,61.7,55.8,30.04,WSW,247,0.0,0.0,81,0.00,,,0.00,WUHU21623XXSP,2013-06-02 03:47:00,
2013-06-01 22:52:00,61.7,55.8,30.05,WSW,247,0.0,0.0,81,0.00,,,0.00,WUHU21623XXSP,2013-06-02 03:52:00,
2013-06-01 22:57:00,61.7,55.8,30.05,WSW,247,0.0,0.0,81,0.00,,,0.00,WUHU21623XXSP,2013-06-02 03:57:00,
2013-06-01 23:02:00,61.7,55.8,30.05,WSW,247,0.0,0.0,81,0.00,,,0.00,WUHU21623XXSP,2013-06-02 04:02:00,
2013-06-01 23:07:00,61.7,55.8,30.05,WSW,247,0.0,0.0,81,0.00,,,0.00,WUHU21623XXSP,2013-06-02 04:07:00,
2013-06-01 23:12:00,61.7,55.8,30.05,WSW,247,0.0,0.0,81,0.00,,,0.00,WUHU21623XXSP,2013-06-02 04:12:00,
2013-06-01 23:17:00,61.7,55.8,30.05,WSW,247,0.0,0.0,81,0.00,,,0.00,WUHU21623XXSP,2013-06-02 04:17:00,
2013-06-01 23:22:00,61.5,55.3,30.05,WSW,247,0.0,0.0,80,0.00,,,0.00,WUHU21623XXSP,2013-06-02 04:22:00,
2013-06-01 23:27:00,61.7,55.5,30.05,WSW,247,0.0,0.0,80,0.00,,,0.00,WUHU21623XXSP,2013-06-02 04:27:00,
2013-06-01 23:32:00,61.7,55.1,30.05,WSW,247,0.0,0.0,79,0.00,,,0.00,WUHU21623XXSP,2013-06-02 04:32:00,
2013-06-01 23:37:00,61.7,55.1,30.05,WSW,247,0.0,0.0,79,0.00,,,0.00,WUHU21623XXSP,2013-06-02 04:37:00,
2013-06-01 23:42:00,61.7,55.1,30.04,WSW,247,0.0,0.0,79,0.00,,,0.00,WUHU21623XXSP,2013-06-02 04:42:00,
2013-06-01 23:47:00,61.5,55.0,30.04,WSW,247,0.0,0.0,79,0.00,,,0.00,WUHU21623XXSP,2013-06-02 04:47:00,
2013-06-01 23:52:00,61.5,55.0,30.05,WSW,247,0.0,0.0,79,0.00,,,0.00,WUHU21623XXSP,2013-06-02 04:52:00,
2013-06-01 23:57:00,61.3,54.8,30.05,WSW,247,0.0,0.0,79,0.00,,,0.00,WUHU21623XXSP,2013-06-02 04:57:00,